sensor_id;sensor_type;location;lat;lon;timestamp;P1;durP1;ratioP1;P2;durP2;ratioP2
32106;SDS011;18622;51.998;10.440;2023-08-30T03:33:54;4.23;;;1.67;;
32106;SDS011;18622;51.998;10.440;2023-08-30T03:36:22;3.10;;;1.40;;
32106;SDS011;18622;51.998;10.440;2023-08-30T03:38:50;3.80;;;1.10;;
32106;SDS011;18622;51.998;10.440;2023-08-30T03:41:18;4.67;;;2.07;;
32106;SDS011;18622;51.998;10.440;2023-08-30T03:43:46;1.33;;;1.23;;
32106;SDS011;18622;51.998;10.440;2023-08-30T03:48:42;2.33;;;1.20;;
32106;SDS011;18622;51.998;10.440;2023-08-30T03:51:10;1.60;;;1.10;;
32106;SDS011;18622;51.998;10.440;2023-08-30T03:53:38;2.77;;;1.37;;
32106;SDS011;18622;51.998;10.440;2023-08-30T03:56:06;1.70;;;1.33;;
32106;SDS011;18622;51.998;10.440;2023-08-30T03:58:34;2.37;;;1.23;;
32106;SDS011;18622;51.998;10.440;2023-08-30T04:01:03;8.50;;;1.75;;
32106;SDS011;18622;51.998;10.440;2023-08-30T04:03:32;3.57;;;1.37;;
32106;SDS011;18622;51.998;10.440;2023-08-30T04:06:00;2.80;;;1.37;;
32106;SDS011;18622;51.998;10.440;2023-08-30T04:08:28;3.97;;;1.20;;
32106;SDS011;18622;51.998;10.440;2023-08-30T04:10:55;3.03;;;1.50;;
32106;SDS011;18622;51.998;10.440;2023-08-30T04:13:23;5.03;;;1.63;;
32106;SDS011;18622;51.998;10.440;2023-08-30T04:15:51;3.87;;;1.20;;
32106;SDS011;18622;51.998;10.440;2023-08-30T04:18:19;6.57;;;1.53;;
32106;SDS011;18622;51.998;10.440;2023-08-30T04:20:47;4.23;;;1.97;;
32106;SDS011;18622;51.998;10.440;2023-08-30T04:23:15;3.80;;;1.20;;
32106;SDS011;18622;51.998;10.440;2023-08-30T04:25:44;2.10;;;1.27;;
32106;SDS011;18622;51.998;10.440;2023-08-30T04:28:11;4.03;;;1.20;;
32106;SDS011;18622;51.998;10.440;2023-08-30T04:30:39;2.30;;;1.03;;
32106;SDS011;18622;51.998;10.440;2023-08-30T04:33:07;2.00;;;1.37;;
32106;SDS011;18622;51.998;10.440;2023-08-30T04:35:35;4.33;;;1.20;;
32106;SDS011;18622;51.998;10.440;2023-08-30T04:38:02;2.83;;;1.30;;
32106;SDS011;18622;51.998;10.440;2023-08-30T04:40:31;2.37;;;1.00;;
32106;SDS011;18622;51.998;10.440;2023-08-30T04:42:58;7.33;;;1.10;;
32106;SDS011;18622;51.998;10.440;2023-08-30T04:45:26;3.60;;;1.03;;
32106;SDS011;18622;51.998;10.440;2023-08-30T04:47:55;1.50;;;1.10;;
32106;SDS011;18622;51.998;10.440;2023-08-30T04:50:23;3.33;;;0.90;;
32106;SDS011;18622;51.998;10.440;2023-08-30T04:52:50;3.80;;;1.00;;
32106;SDS011;18622;51.998;10.440;2023-08-30T04:55:18;2.87;;;1.37;;
32106;SDS011;18622;51.998;10.440;2023-08-30T04:57:46;1.53;;;1.00;;
32106;SDS011;18622;51.998;10.440;2023-08-30T05:00:14;1.70;;;1.00;;
32106;SDS011;18622;51.998;10.440;2023-08-30T05:02:42;4.00;;;0.90;;
32106;SDS011;18622;51.998;10.440;2023-08-30T05:05:12;2.83;;;1.75;;
32106;SDS011;18622;51.998;10.440;2023-08-30T05:07:39;4.03;;;1.30;;
32106;SDS011;18622;51.998;10.440;2023-08-30T05:10:08;3.03;;;1.27;;
32106;SDS011;18622;51.998;10.440;2023-08-30T05:12:35;1.72;;;1.17;;
32106;SDS011;18622;51.998;10.440;2023-08-30T05:15:03;5.70;;;1.07;;
32106;SDS011;18622;51.998;10.440;2023-08-30T05:17:31;1.63;;;0.97;;
32106;SDS011;18622;51.998;10.440;2023-08-30T05:19:59;3.40;;;1.27;;
32106;SDS011;18622;51.998;10.440;2023-08-30T05:22:27;1.30;;;0.87;;
32106;SDS011;18622;51.998;10.440;2023-08-30T05:24:55;1.33;;;0.80;;
32106;SDS011;18622;51.998;10.440;2023-08-30T05:27:23;1.13;;;0.90;;
32106;SDS011;18622;51.998;10.440;2023-08-30T05:29:51;2.10;;;1.07;;
32106;SDS011;18622;51.998;10.440;2023-08-30T05:32:19;2.90;;;1.10;;
32106;SDS011;18622;51.998;10.440;2023-08-30T05:34:46;5.50;;;1.23;;
32106;SDS011;18622;51.998;10.440;2023-08-30T05:37:14;1.30;;;1.20;;
32106;SDS011;18622;51.998;10.440;2023-08-30T05:39:42;2.40;;;1.00;;
32106;SDS011;18622;51.998;10.440;2023-08-30T05:42:10;1.17;;;0.70;;
32106;SDS011;18622;51.998;10.440;2023-08-30T05:44:38;2.03;;;0.90;;
32106;SDS011;18622;51.998;10.440;2023-08-30T05:47:06;1.53;;;1.00;;
32106;SDS011;18622;51.998;10.440;2023-08-30T05:49:33;1.17;;;0.73;;
32106;SDS011;18622;51.998;10.440;2023-08-30T05:52:01;1.00;;;0.90;;
32106;SDS011;18622;51.998;10.440;2023-08-30T05:54:29;2.73;;;1.00;;
32106;SDS011;18622;51.998;10.440;2023-08-30T05:56:59;1.90;;;1.20;;
32106;SDS011;18622;51.998;10.440;2023-08-30T05:59:26;1.30;;;1.20;;
32106;SDS011;18622;51.998;10.440;2023-08-30T06:01:54;2.40;;;1.23;;
32106;SDS011;18622;51.998;10.440;2023-08-30T06:04:22;2.83;;;1.40;;
32106;SDS011;18622;51.998;10.440;2023-08-30T06:06:50;4.53;;;1.50;;
32106;SDS011;18622;51.998;10.440;2023-08-30T06:09:18;2.63;;;1.60;;
32106;SDS011;18622;51.998;10.440;2023-08-30T06:11:45;2.10;;;1.10;;
32106;SDS011;18622;51.998;10.440;2023-08-30T06:14:13;5.13;;;2.73;;
32106;SDS011;18622;51.998;10.440;2023-08-30T06:16:41;1.47;;;1.20;;
32106;SDS011;18622;51.998;10.440;2023-08-30T06:19:10;3.37;;;1.20;;
32106;SDS011;18622;51.998;10.440;2023-08-30T06:21:38;5.47;;;1.43;;
32106;SDS011;18622;51.998;10.440;2023-08-30T06:24:06;3.87;;;1.23;;
32106;SDS011;18622;51.998;10.440;2023-08-30T06:26:34;1.97;;;1.20;;
32106;SDS011;18622;51.998;10.440;2023-08-30T06:29:02;3.93;;;1.47;;
32106;SDS011;18622;51.998;10.440;2023-08-30T06:31:30;2.80;;;1.50;;
32106;SDS011;18622;51.998;10.440;2023-08-30T06:33:58;3.47;;;1.40;;
32106;SDS011;18622;51.998;10.440;2023-08-30T06:36:26;2.40;;;1.50;;
32106;SDS011;18622;51.998;10.440;2023-08-30T06:38:53;4.43;;;1.47;;
32106;SDS011;18622;51.998;10.440;2023-08-30T06:41:21;2.83;;;1.33;;
32106;SDS011;18622;51.998;10.440;2023-08-30T06:43:49;4.43;;;1.70;;
32106;SDS011;18622;51.998;10.440;2023-08-30T06:46:17;3.37;;;1.40;;
32106;SDS011;18622;51.998;10.440;2023-08-30T06:48:45;2.97;;;1.77;;
32106;SDS011;18622;51.998;10.440;2023-08-30T06:51:12;2.47;;;1.30;;
32106;SDS011;18622;51.998;10.440;2023-08-30T06:53:40;3.33;;;1.23;;
32106;SDS011;18622;51.998;10.440;2023-08-30T06:56:08;4.20;;;1.33;;
32106;SDS011;18622;51.998;10.440;2023-08-30T06:58:36;2.27;;;1.62;;
32106;SDS011;18622;51.998;10.440;2023-08-30T07:01:04;2.00;;;1.17;;
32106;SDS011;18622;51.998;10.440;2023-08-30T07:03:32;2.87;;;1.33;;
32106;SDS011;18622;51.998;10.440;2023-08-30T07:06:00;5.47;;;1.43;;
32106;SDS011;18622;51.998;10.440;2023-08-30T07:08:28;1.53;;;1.23;;
32106;SDS011;18622;51.998;10.440;2023-08-30T07:10:55;2.90;;;1.50;;
32106;SDS011;18622;51.998;10.440;2023-08-30T07:13:23;1.80;;;1.30;;
32106;SDS011;18622;51.998;10.440;2023-08-30T07:15:51;2.97;;;1.83;;
32106;SDS011;18622;51.998;10.440;2023-08-30T07:18:19;4.00;;;1.95;;
32106;SDS011;18622;51.998;10.440;2023-08-30T07:20:47;2.07;;;1.17;;
32106;SDS011;18622;51.998;10.440;2023-08-30T07:23:15;4.67;;;1.70;;
32106;SDS011;18622;51.998;10.440;2023-08-30T07:25:43;1.70;;;1.50;;
32106;SDS011;18622;51.998;10.440;2023-08-30T07:28:10;3.70;;;1.47;;
32106;SDS011;18622;51.998;10.440;2023-08-30T07:30:38;3.83;;;1.57;;
32106;SDS011;18622;51.998;10.440;2023-08-30T07:33:06;3.43;;;1.17;;
32106;SDS011;18622;51.998;10.440;2023-08-30T07:35:34;2.57;;;1.47;;
32106;SDS011;18622;51.998;10.440;2023-08-30T07:38:02;2.80;;;1.30;;
32106;SDS011;18622;51.998;10.440;2023-08-30T07:40:29;2.37;;;1.57;;
32106;SDS011;18622;51.998;10.440;2023-08-30T07:42:57;3.10;;;1.37;;
32106;SDS011;18622;51.998;10.440;2023-08-30T07:45:25;2.63;;;1.37;;
32106;SDS011;18622;51.998;10.440;2023-08-30T07:47:53;7.30;;;1.23;;
32106;SDS011;18622;51.998;10.440;2023-08-30T07:50:21;3.43;;;1.37;;
32106;SDS011;18622;51.998;10.440;2023-08-30T07:52:48;4.40;;;1.47;;
32106;SDS011;18622;51.998;10.440;2023-08-30T07:55:16;3.83;;;1.77;;
32106;SDS011;18622;51.998;10.440;2023-08-30T07:57:44;2.43;;;1.30;;
32106;SDS011;18622;51.998;10.440;2023-08-30T08:00:12;5.83;;;1.10;;
32106;SDS011;18622;51.998;10.440;2023-08-30T08:02:40;1.62;;;1.20;;
32106;SDS011;18622;51.998;10.440;2023-08-30T08:05:08;3.00;;;1.13;;
32106;SDS011;18622;51.998;10.440;2023-08-30T08:07:37;5.50;;;1.27;;
32106;SDS011;18622;51.998;10.440;2023-08-30T08:10:06;1.98;;;1.02;;
32106;SDS011;18622;51.998;10.440;2023-08-30T08:12:34;1.40;;;0.80;;
32106;SDS011;18622;51.998;10.440;2023-08-30T08:15:02;1.53;;;0.97;;
32106;SDS011;18622;51.998;10.440;2023-08-30T08:17:30;2.63;;;0.70;;
32106;SDS011;18622;51.998;10.440;2023-08-30T08:19:58;3.40;;;0.93;;
32106;SDS011;18622;51.998;10.440;2023-08-30T08:22:26;2.37;;;1.03;;
32106;SDS011;18622;51.998;10.440;2023-08-30T08:24:54;1.02;;;0.62;;
32106;SDS011;18622;51.998;10.440;2023-08-30T08:27:24;0.97;;;0.80;;
32106;SDS011;18622;51.998;10.440;2023-08-30T08:29:52;2.08;;;0.80;;
32106;SDS011;18622;51.998;10.440;2023-08-30T08:32:20;1.17;;;0.70;;
32106;SDS011;18622;51.998;10.440;2023-08-30T08:34:47;2.30;;;0.97;;
32106;SDS011;18622;51.998;10.440;2023-08-30T08:37:15;1.43;;;0.90;;
32106;SDS011;18622;51.998;10.440;2023-08-30T08:39:43;0.70;;;0.60;;
32106;SDS011;18622;51.998;10.440;2023-08-30T08:42:13;0.75;;;0.60;;
32106;SDS011;18622;51.998;10.440;2023-08-30T08:44:42;1.62;;;1.10;;
32106;SDS011;18622;51.998;10.440;2023-08-30T08:47:14;0.63;;;0.60;;
32106;SDS011;18622;51.998;10.440;2023-08-30T08:52:10;2.25;;;0.55;;
32106;SDS011;18622;51.998;10.440;2023-08-30T08:54:38;0.60;;;0.60;;
32106;SDS011;18622;51.998;10.440;2023-08-30T08:57:07;1.22;;;0.85;;
32106;SDS011;18622;51.998;10.440;2023-08-30T08:59:35;1.72;;;0.80;;
32106;SDS011;18622;51.998;10.440;2023-08-30T09:02:03;1.20;;;1.07;;
32106;SDS011;18622;51.998;10.440;2023-08-30T09:04:31;3.05;;;0.98;;
32106;SDS011;18622;51.998;10.440;2023-08-30T09:06:59;1.47;;;0.90;;
32106;SDS011;18622;51.998;10.440;2023-08-30T09:09:27;1.33;;;1.03;;
32106;SDS011;18622;51.998;10.440;2023-08-30T09:11:55;1.37;;;0.87;;
32106;SDS011;18622;51.998;10.440;2023-08-30T09:14:22;1.03;;;1.00;;
32106;SDS011;18622;51.998;10.440;2023-08-30T09:17:00;0.93;;;0.90;;
32106;SDS011;18622;51.998;10.440;2023-08-30T09:19:29;2.43;;;1.30;;
32106;SDS011;18622;51.998;10.440;2023-08-30T09:21:57;1.03;;;0.93;;
32106;SDS011;18622;51.998;10.440;2023-08-30T09:24:36;2.08;;;1.20;;
32106;SDS011;18622;51.998;10.440;2023-08-30T09:27:07;2.00;;;1.20;;
32106;SDS011;18622;51.998;10.440;2023-08-30T09:29:35;2.57;;;0.93;;
32106;SDS011;18622;51.998;10.440;2023-08-30T09:32:03;3.37;;;1.00;;
32106;SDS011;18622;51.998;10.440;2023-08-30T09:34:31;2.97;;;1.10;;
32106;SDS011;18622;51.998;10.440;2023-08-30T09:36:59;2.10;;;0.80;;
32106;SDS011;18622;51.998;10.440;2023-08-30T09:39:27;1.13;;;0.90;;
32106;SDS011;18622;51.998;10.440;2023-08-30T09:41:55;1.13;;;0.93;;
32106;SDS011;18622;51.998;10.440;2023-08-30T09:44:23;0.90;;;0.80;;
32106;SDS011;18622;51.998;10.440;2023-08-30T09:46:53;0.85;;;0.80;;
32106;SDS011;18622;51.998;10.440;2023-08-30T09:49:23;1.20;;;0.80;;
32106;SDS011;18622;51.998;10.440;2023-08-30T09:51:53;1.87;;;1.10;;
32106;SDS011;18622;51.998;10.440;2023-08-30T09:54:22;2.35;;;1.35;;
32106;SDS011;18622;51.998;10.440;2023-08-30T09:56:51;1.30;;;1.20;;
32106;SDS011;18622;51.998;10.440;2023-08-30T09:59:19;1.73;;;1.50;;
32106;SDS011;18622;51.998;10.440;2023-08-30T10:01:49;1.43;;;1.30;;
32106;SDS011;18622;51.998;10.440;2023-08-30T10:04:20;1.95;;;1.10;;
32106;SDS011;18622;51.998;10.440;2023-08-30T10:06:49;1.60;;;1.50;;
32106;SDS011;18622;51.998;10.440;2023-08-30T10:09:19;2.43;;;1.93;;
32106;SDS011;18622;51.998;10.440;2023-08-30T10:11:47;3.00;;;1.87;;
32106;SDS011;18622;51.998;10.440;2023-08-30T10:14:17;1.90;;;1.67;;
32106;SDS011;18622;51.998;10.440;2023-08-30T10:16:46;1.70;;;1.60;;
32106;SDS011;18622;51.998;10.440;2023-08-30T10:19:23;2.73;;;1.67;;
32106;SDS011;18622;51.998;10.440;2023-08-30T10:24:39;7.80;;;2.30;;
32106;SDS011;18622;51.998;10.440;2023-08-30T10:27:08;1.83;;;1.67;;
32106;SDS011;18622;51.998;10.440;2023-08-30T10:29:37;5.00;;;2.37;;
32106;SDS011;18622;51.998;10.440;2023-08-30T10:32:07;4.60;;;2.83;;
32106;SDS011;18622;51.998;10.440;2023-08-30T10:34:35;2.20;;;1.83;;
32106;SDS011;18622;51.998;10.440;2023-08-30T10:37:06;4.95;;;1.80;;
32106;SDS011;18622;51.998;10.440;2023-08-30T10:39:34;2.30;;;2.10;;
32106;SDS011;18622;51.998;10.440;2023-08-30T10:42:13;1.50;;;1.40;;
32106;SDS011;18622;51.998;10.440;2023-08-30T10:44:57;3.83;;;2.30;;
32106;SDS011;18622;51.998;10.440;2023-08-30T10:47:27;5.17;;;3.43;;
32106;SDS011;18622;51.998;10.440;2023-08-30T10:49:56;3.62;;;3.12;;
32106;SDS011;18622;51.998;10.440;2023-08-30T10:52:29;3.43;;;2.80;;
32106;SDS011;18622;51.998;10.440;2023-08-30T10:55:09;4.27;;;2.67;;
32106;SDS011;18622;51.998;10.440;2023-08-30T10:57:43;5.20;;;2.87;;
32106;SDS011;18622;51.998;10.440;2023-08-30T11:00:19;3.45;;;2.42;;
32106;SDS011;18622;51.998;10.440;2023-08-30T11:02:46;5.93;;;2.53;;
32106;SDS011;18622;51.998;10.440;2023-08-30T11:05:16;3.83;;;2.40;;
32106;SDS011;18622;51.998;10.440;2023-08-30T11:07:46;3.33;;;1.97;;
32106;SDS011;18622;51.998;10.440;2023-08-30T11:10:16;3.10;;;2.80;;
32106;SDS011;18622;51.998;10.440;2023-08-30T11:12:45;3.83;;;3.40;;
32106;SDS011;18622;51.998;10.440;2023-08-30T11:15:15;3.07;;;2.60;;
32106;SDS011;18622;51.998;10.440;2023-08-30T11:17:43;3.47;;;2.47;;
32106;SDS011;18622;51.998;10.440;2023-08-30T11:20:12;2.90;;;2.65;;
32106;SDS011;18622;51.998;10.440;2023-08-30T11:22:44;5.07;;;2.97;;
32106;SDS011;18622;51.998;10.440;2023-08-30T11:25:13;3.80;;;2.70;;
32106;SDS011;18622;51.998;10.440;2023-08-30T11:27:42;3.27;;;2.30;;
32106;SDS011;18622;51.998;10.440;2023-08-30T11:30:10;4.00;;;3.33;;
32106;SDS011;18622;51.998;10.440;2023-08-30T11:32:39;3.83;;;2.37;;
32106;SDS011;18622;51.998;10.440;2023-08-30T11:35:11;2.43;;;2.13;;
32106;SDS011;18622;51.998;10.440;2023-08-30T11:37:39;3.10;;;2.00;;
32106;SDS011;18622;51.998;10.440;2023-08-30T11:42:36;2.60;;;2.10;;
32106;SDS011;18622;51.998;10.440;2023-08-30T11:45:04;7.10;;;3.27;;
32106;SDS011;18622;51.998;10.440;2023-08-30T11:47:33;2.33;;;2.10;;
32106;SDS011;18622;51.998;10.440;2023-08-30T11:50:01;2.53;;;2.03;;
32106;SDS011;18622;51.998;10.440;2023-08-30T11:52:29;3.33;;;2.40;;
32106;SDS011;18622;51.998;10.440;2023-08-30T11:54:58;2.23;;;2.00;;
32106;SDS011;18622;51.998;10.440;2023-08-30T11:57:27;3.77;;;2.25;;
32106;SDS011;18622;51.998;10.440;2023-08-30T11:59:54;3.10;;;2.07;;
32106;SDS011;18622;51.998;10.440;2023-08-30T12:02:22;3.80;;;2.10;;
32106;SDS011;18622;51.998;10.440;2023-08-30T12:04:51;2.02;;;1.90;;
32106;SDS011;18622;51.998;10.440;2023-08-30T12:07:22;2.97;;;1.90;;
32106;SDS011;18622;51.998;10.440;2023-08-30T12:09:51;3.03;;;1.73;;
32106;SDS011;18622;51.998;10.440;2023-08-30T12:12:19;4.00;;;1.42;;
32106;SDS011;18622;51.998;10.440;2023-08-30T12:14:54;1.60;;;1.45;;
32106;SDS011;18622;51.998;10.440;2023-08-30T12:17:23;3.63;;;2.03;;
32106;SDS011;18622;51.998;10.440;2023-08-30T12:19:57;3.20;;;1.90;;
32106;SDS011;18622;51.998;10.440;2023-08-30T12:22:35;4.17;;;2.30;;
32106;SDS011;18622;51.998;10.440;2023-08-30T12:25:20;2.83;;;2.50;;
32106;SDS011;18622;51.998;10.440;2023-08-30T12:27:47;5.57;;;2.17;;
32106;SDS011;18622;51.998;10.440;2023-08-30T12:30:15;4.77;;;2.20;;
32106;SDS011;18622;51.998;10.440;2023-08-30T12:32:43;3.80;;;1.60;;
32106;SDS011;18622;51.998;10.440;2023-08-30T12:35:12;2.12;;;1.70;;
32106;SDS011;18622;51.998;10.440;2023-08-30T12:37:40;2.90;;;1.97;;
32106;SDS011;18622;51.998;10.440;2023-08-30T12:40:08;2.80;;;2.00;;
32106;SDS011;18622;51.998;10.440;2023-08-30T12:42:36;3.30;;;1.80;;
32106;SDS011;18622;51.998;10.440;2023-08-30T12:45:04;2.45;;;2.00;;
32106;SDS011;18622;51.998;10.440;2023-08-30T12:47:33;3.08;;;2.00;;
32106;SDS011;18622;51.998;10.440;2023-08-30T12:50:01;2.53;;;2.03;;
32106;SDS011;18622;51.998;10.440;2023-08-30T12:52:29;2.27;;;2.03;;
32106;SDS011;18622;51.998;10.440;2023-08-30T12:54:57;3.60;;;1.93;;
32106;SDS011;18622;51.998;10.440;2023-08-30T12:57:24;7.73;;;2.97;;
32106;SDS011;18622;51.998;10.440;2023-08-30T12:59:52;2.83;;;2.50;;
32106;SDS011;18622;51.998;10.440;2023-08-30T13:02:20;3.57;;;2.70;;
32106;SDS011;18622;51.998;10.440;2023-08-30T13:04:48;3.80;;;2.60;;
32106;SDS011;18622;51.998;10.440;2023-08-30T13:07:16;3.27;;;2.47;;
32106;SDS011;18622;51.998;10.440;2023-08-30T13:09:43;3.17;;;2.90;;
32106;SDS011;18622;51.998;10.440;2023-08-30T13:12:11;5.53;;;4.13;;
32106;SDS011;18622;51.998;10.440;2023-08-30T13:14:39;3.57;;;3.27;;
32106;SDS011;18622;51.998;10.440;2023-08-30T13:17:07;3.50;;;3.17;;
32106;SDS011;18622;51.998;10.440;2023-08-30T13:19:35;6.10;;;3.33;;
32106;SDS011;18622;51.998;10.440;2023-08-30T13:22:02;3.13;;;2.90;;
32106;SDS011;18622;51.998;10.440;2023-08-30T13:24:30;4.07;;;3.67;;
32106;SDS011;18622;51.998;10.440;2023-08-30T13:26:58;4.97;;;4.27;;
32106;SDS011;18622;51.998;10.440;2023-08-30T13:29:26;3.87;;;3.13;;
32106;SDS011;18622;51.998;10.440;2023-08-30T13:31:54;5.53;;;4.23;;
32106;SDS011;18622;51.998;10.440;2023-08-30T13:34:22;4.63;;;3.60;;
32106;SDS011;18622;51.998;10.440;2023-08-30T13:36:50;4.23;;;3.10;;
32106;SDS011;18622;51.998;10.440;2023-08-30T13:39:18;3.23;;;2.93;;
32106;SDS011;18622;51.998;10.440;2023-08-30T13:41:48;3.58;;;2.98;;
32106;SDS011;18622;51.998;10.440;2023-08-30T13:44:16;4.90;;;4.07;;
32106;SDS011;18622;51.998;10.440;2023-08-30T13:46:44;3.33;;;2.97;;
32106;SDS011;18622;51.998;10.440;2023-08-30T13:49:13;2.87;;;2.57;;
32106;SDS011;18622;51.998;10.440;2023-08-30T13:51:41;4.62;;;3.70;;
32106;SDS011;18622;51.998;10.440;2023-08-30T13:54:09;3.70;;;3.33;;
32106;SDS011;18622;51.998;10.440;2023-08-30T13:56:37;3.43;;;2.87;;
32106;SDS011;18622;51.998;10.440;2023-08-30T13:59:05;2.80;;;2.60;;
32106;SDS011;18622;51.998;10.440;2023-08-30T14:01:33;3.53;;;3.07;;
32106;SDS011;18622;51.998;10.440;2023-08-30T14:04:03;3.17;;;2.83;;
32106;SDS011;18622;51.998;10.440;2023-08-30T14:06:31;4.30;;;2.70;;
32106;SDS011;18622;51.998;10.440;2023-08-30T14:08:59;3.03;;;2.73;;
32106;SDS011;18622;51.998;10.440;2023-08-30T14:11:27;3.00;;;2.70;;
32106;SDS011;18622;51.998;10.440;2023-08-30T14:13:55;3.53;;;2.80;;
32106;SDS011;18622;51.998;10.440;2023-08-30T14:16:23;2.90;;;2.40;;
32106;SDS011;18622;51.998;10.440;2023-08-30T14:18:51;4.67;;;2.80;;
32106;SDS011;18622;51.998;10.440;2023-08-30T14:21:19;4.17;;;2.43;;
32106;SDS011;18622;51.998;10.440;2023-08-30T14:23:47;3.60;;;3.22;;
32106;SDS011;18622;51.998;10.440;2023-08-30T14:26:15;4.60;;;3.40;;
32106;SDS011;18622;51.998;10.440;2023-08-30T14:28:43;4.57;;;3.23;;
32106;SDS011;18622;51.998;10.440;2023-08-30T14:31:11;3.00;;;2.80;;
32106;SDS011;18622;51.998;10.440;2023-08-30T14:33:42;3.00;;;2.37;;
32106;SDS011;18622;51.998;10.440;2023-08-30T14:36:12;3.07;;;2.63;;
32106;SDS011;18622;51.998;10.440;2023-08-30T14:38:42;2.80;;;2.47;;
32106;SDS011;18622;51.998;10.440;2023-08-30T14:41:09;5.40;;;3.47;;
32106;SDS011;18622;51.998;10.440;2023-08-30T14:43:39;4.20;;;3.17;;
32106;SDS011;18622;51.998;10.440;2023-08-30T14:46:06;2.73;;;2.53;;
32106;SDS011;18622;51.998;10.440;2023-08-30T14:48:34;5.50;;;2.70;;
32106;SDS011;18622;51.998;10.440;2023-08-30T14:51:04;2.70;;;2.50;;
32106;SDS011;18622;51.998;10.440;2023-08-30T14:53:33;2.67;;;2.47;;
32106;SDS011;18622;51.998;10.440;2023-08-30T14:56:02;2.30;;;2.10;;
32106;SDS011;18622;51.998;10.440;2023-08-30T14:58:33;3.45;;;2.37;;
32106;SDS011;18622;51.998;10.440;2023-08-30T15:01:01;3.70;;;2.00;;
32106;SDS011;18622;51.998;10.440;2023-08-30T15:03:29;3.30;;;2.37;;
32106;SDS011;18622;51.998;10.440;2023-08-30T15:05:58;3.37;;;2.73;;
32106;SDS011;18622;51.998;10.440;2023-08-30T15:08:25;2.63;;;2.40;;
32106;SDS011;18622;51.998;10.440;2023-08-30T15:10:53;3.80;;;2.10;;
32106;SDS011;18622;51.998;10.440;2023-08-30T15:13:21;3.17;;;2.07;;
32106;SDS011;18622;51.998;10.440;2023-08-30T15:15:49;2.63;;;2.30;;
32106;SDS011;18622;51.998;10.440;2023-08-30T15:18:17;2.43;;;2.10;;
32106;SDS011;18622;51.998;10.440;2023-08-30T15:20:45;5.78;;;2.45;;
32106;SDS011;18622;51.998;10.440;2023-08-30T15:23:14;5.33;;;2.25;;
32106;SDS011;18622;51.998;10.440;2023-08-30T15:25:45;4.55;;;2.33;;
32106;SDS011;18622;51.998;10.440;2023-08-30T15:28:14;3.20;;;2.55;;
32106;SDS011;18622;51.998;10.440;2023-08-30T15:30:48;4.87;;;2.40;;
32106;SDS011;18622;51.998;10.440;2023-08-30T15:33:13;4.83;;;2.33;;
32106;SDS011;18622;51.998;10.440;2023-08-30T15:35:40;4.33;;;2.30;;
32106;SDS011;18622;51.998;10.440;2023-08-30T15:38:08;2.87;;;2.58;;
32106;SDS011;18622;51.998;10.440;2023-08-30T15:40:38;4.83;;;2.70;;
32106;SDS011;18622;51.998;10.440;2023-08-30T15:43:06;2.77;;;2.33;;
32106;SDS011;18622;51.998;10.440;2023-08-30T15:48:03;2.62;;;2.33;;
32106;SDS011;18622;51.998;10.440;2023-08-30T15:50:31;2.87;;;2.10;;
32106;SDS011;18622;51.998;10.440;2023-08-30T15:52:59;3.60;;;2.20;;
32106;SDS011;18622;51.998;10.440;2023-08-30T15:55:27;3.23;;;2.77;;
32106;SDS011;18622;51.998;10.440;2023-08-30T15:57:56;2.58;;;2.37;;
32106;SDS011;18622;51.998;10.440;2023-08-30T16:00:24;3.00;;;2.33;;
32106;SDS011;18622;51.998;10.440;2023-08-30T16:02:52;3.00;;;2.23;;
32106;SDS011;18622;51.998;10.440;2023-08-30T16:05:20;3.47;;;2.50;;
32106;SDS011;18622;51.998;10.440;2023-08-30T16:07:48;4.42;;;2.30;;
32106;SDS011;18622;51.998;10.440;2023-08-30T16:10:16;5.70;;;2.60;;
32106;SDS011;18622;51.998;10.440;2023-08-30T16:12:43;3.17;;;2.40;;
32106;SDS011;18622;51.998;10.440;2023-08-30T16:15:11;2.73;;;2.27;;
32106;SDS011;18622;51.998;10.440;2023-08-30T16:17:39;3.10;;;2.30;;
32106;SDS011;18622;51.998;10.440;2023-08-30T16:20:07;5.40;;;2.60;;
32106;SDS011;18622;51.998;10.440;2023-08-30T16:22:36;4.37;;;2.40;;
32106;SDS011;18622;51.998;10.440;2023-08-30T16:25:04;3.27;;;2.50;;
32106;SDS011;18622;51.998;10.440;2023-08-30T16:27:32;2.52;;;2.17;;
32106;SDS011;18622;51.998;10.440;2023-08-30T16:29:59;7.57;;;2.20;;
32106;SDS011;18622;51.998;10.440;2023-08-30T16:32:29;5.45;;;1.92;;
32106;SDS011;18622;51.998;10.440;2023-08-30T16:34:57;8.83;;;2.60;;
32106;SDS011;18622;51.998;10.440;2023-08-30T16:37:25;3.57;;;2.43;;
32106;SDS011;18622;51.998;10.440;2023-08-30T16:39:53;5.40;;;2.13;;
32106;SDS011;18622;51.998;10.440;2023-08-30T16:42:20;9.38;;;2.55;;
32106;SDS011;18622;51.998;10.440;2023-08-30T16:44:49;6.33;;;2.47;;
32106;SDS011;18622;51.998;10.440;2023-08-30T16:47:16;3.07;;;2.77;;
32106;SDS011;18622;51.998;10.440;2023-08-30T16:49:44;4.97;;;2.80;;
32106;SDS011;18622;51.998;10.440;2023-08-30T16:52:12;5.27;;;3.37;;
32106;SDS011;18622;51.998;10.440;2023-08-30T16:54:40;6.40;;;3.77;;
32106;SDS011;18622;51.998;10.440;2023-08-30T16:57:08;4.50;;;3.03;;
32106;SDS011;18622;51.998;10.440;2023-08-30T16:59:36;4.73;;;3.07;;
32106;SDS011;18622;51.998;10.440;2023-08-30T17:02:04;3.30;;;2.70;;
32106;SDS011;18622;51.998;10.440;2023-08-30T17:04:32;3.87;;;2.90;;
32106;SDS011;18622;51.998;10.440;2023-08-30T17:07:00;7.93;;;2.73;;
32106;SDS011;18622;51.998;10.440;2023-08-30T17:09:36;5.72;;;3.08;;
32106;SDS011;18622;51.998;10.440;2023-08-30T17:12:04;4.20;;;3.30;;
32106;SDS011;18622;51.998;10.440;2023-08-30T17:14:32;5.43;;;3.90;;
32106;SDS011;18622;51.998;10.440;2023-08-30T17:17:00;10.67;;;6.27;;
32106;SDS011;18622;51.998;10.440;2023-08-30T17:19:28;7.13;;;4.10;;
32106;SDS011;18622;51.998;10.440;2023-08-30T17:21:56;7.73;;;4.47;;
32106;SDS011;18622;51.998;10.440;2023-08-30T17:24:23;7.23;;;4.43;;
32106;SDS011;18622;51.998;10.440;2023-08-30T17:26:51;10.17;;;5.23;;
32106;SDS011;18622;51.998;10.440;2023-08-30T17:29:19;10.30;;;5.23;;
32106;SDS011;18622;51.998;10.440;2023-08-30T17:31:47;11.73;;;6.30;;
32106;SDS011;18622;51.998;10.440;2023-08-30T17:34:14;9.17;;;5.77;;
32106;SDS011;18622;51.998;10.440;2023-08-30T17:36:42;7.57;;;6.13;;
32106;SDS011;18622;51.998;10.440;2023-08-30T17:39:12;13.28;;;6.83;;
32106;SDS011;18622;51.998;10.440;2023-08-30T17:41:41;11.50;;;7.40;;
32106;SDS011;18622;51.998;10.440;2023-08-30T17:44:08;14.30;;;7.80;;
32106;SDS011;18622;51.998;10.440;2023-08-30T17:46:36;13.97;;;7.73;;
32106;SDS011;18622;51.998;10.440;2023-08-30T17:49:04;11.83;;;8.30;;
32106;SDS011;18622;51.998;10.440;2023-08-30T17:51:32;14.27;;;8.87;;
32106;SDS011;18622;51.998;10.440;2023-08-30T17:53:59;14.67;;;9.17;;
32106;SDS011;18622;51.998;10.440;2023-08-30T17:56:27;15.63;;;9.47;;
32106;SDS011;18622;51.998;10.440;2023-08-30T17:58:55;16.47;;;9.47;;
32106;SDS011;18622;51.998;10.440;2023-08-30T18:01:23;12.90;;;9.00;;
32106;SDS011;18622;51.998;10.440;2023-08-30T18:03:55;13.67;;;9.47;;
32106;SDS011;18622;51.998;10.440;2023-08-30T18:06:23;17.03;;;10.47;;
32106;SDS011;18622;51.998;10.440;2023-08-30T18:08:51;16.67;;;10.72;;
32106;SDS011;18622;51.998;10.440;2023-08-30T18:11:19;23.83;;;10.37;;
32106;SDS011;18622;51.998;10.440;2023-08-30T18:13:47;19.23;;;11.35;;
32106;SDS011;18622;51.998;10.440;2023-08-30T18:16:17;18.55;;;10.45;;
32106;SDS011;18622;51.998;10.440;2023-08-30T18:18:46;19.37;;;11.80;;
32106;SDS011;18622;51.998;10.440;2023-08-30T18:21:15;22.65;;;12.70;;
32106;SDS011;18622;51.998;10.440;2023-08-30T18:24:10;23.47;;;12.33;;
32106;SDS011;18622;51.998;10.440;2023-08-30T18:26:17;24.57;;;13.10;;